Time;durP1;ratioP1;P1;durP2;ratioP2;P2;SDS_P1;SDS_P2;PMS_P1;PMS_P2;Temp;Humidity;BMP_temperature;BMP_pressure;BME280_temperature;BME280_humidity;BME280_pressure;Samples;Min_cycle;Max_cycle;Signal;HPM_P1;HPM_P2
2023/12/08 00:01:17;;;;;;;0.20;0.10;;;;;;;8.60;48.02;98752.97;4991934;28;20038;-83
2023/12/08 00:03:42;;;;;;;0.47;0.20;;;;;;;8.56;47.86;98737.66;4976664;28;20050;-81
2023/12/08 00:06:08;;;;;;;0.20;0.10;;;;;;;8.57;47.93;98741.91;4972633;28;20042;-82
2023/12/08 00:08:34;;;;;;;0.60;0.25;;;;;;;8.59;47.86;98753.06;4988631;28;20185;-82
2023/12/08 00:10:59;;;;;;;0.20;0.20;;;;;;;8.58;48.11;98746.19;4972377;28;20038;-82
2023/12/08 00:13:25;;;;;;;0.32;0.13;;;;;;;8.57;48.17;98760.13;4973051;28;20094;-82
2023/12/08 00:15:50;;;;;;;1.58;0.20;;;;;;;8.56;48.13;98756.69;4972680;28;20066;-82
2023/12/08 00:18:16;;;;;;;0.35;0.10;;;;;;;8.55;48.33;98759.41;4972545;28;20093;-81
2023/12/08 00:20:42;;;;;;;0.32;0.20;;;;;;;8.56;47.87;98763.69;4972576;28;20105;-82
2023/12/08 00:23:07;;;;;;;0.20;0.20;;;;;;;8.55;47.88;98768.03;4956710;28;20035;-81
2023/12/08 00:25:33;;;;;;;0.47;0.30;;;;;;;8.55;48.32;98772.41;4974385;28;20030;-82
2023/12/08 00:27:58;;;;;;;0.22;0.20;;;;;;;8.50;48.10;98768.34;4956521;28;20054;-81
2023/12/08 00:30:24;;;;;;;0.52;0.30;;;;;;;8.53;47.98;98779.50;4972441;28;20027;-83
2023/12/08 00:32:49;;;;;;;0.43;0.22;;;;;;;8.51;48.11;98780.41;4972443;28;20471;-82
2023/12/08 00:35:15;;;;;;;0.40;0.25;;;;;;;8.56;48.13;98795.72;4972772;28;20035;-82
2023/12/08 00:37:40;;;;;;;0.50;0.20;;;;;;;8.53;48.06;98797.69;4972779;28;20045;-83
2023/12/08 00:40:08;;;;;;;0.43;0.30;;;;;;;8.52;48.00;98789.03;4974205;28;20031;-83
2023/12/08 00:42:34;;;;;;;0.15;0.10;;;;;;;8.50;48.16;98790.94;4956963;28;20042;-82
2023/12/08 00:44:59;;;;;;;2.58;0.20;;;;;;;8.53;48.16;98785.53;4956728;28;20107;-82
2023/12/08 00:47:25;;;;;;;0.57;0.30;;;;;;;8.56;48.12;98781.88;4973823;28;20417;-82
2023/12/08 00:49:50;;;;;;;0.68;0.30;;;;;;;8.54;48.07;98786.34;4956504;28;20064;-83
2023/12/08 00:52:16;;;;;;;0.70;0.30;;;;;;;8.54;48.11;98775.94;4956395;28;20031;-83
2023/12/08 00:54:41;;;;;;;0.65;0.30;;;;;;;8.54;47.97;98776.78;4957776;28;20523;-82
2023/12/08 00:57:07;;;;;;;1.98;0.20;;;;;;;8.51;48.50;98770.00;4976038;28;20042;-81
2023/12/08 00:59:32;;;;;;;0.30;0.20;;;;;;;8.50;48.05;98768.34;4959847;28;20490;-81
2023/12/08 01:01:57;;;;;;;0.50;0.28;;;;;;;8.46;47.94;98766.03;4975894;28;20037;-81
2023/12/08 01:04:23;;;;;;;0.30;0.20;;;;;;;8.49;48.35;98769.28;4959609;28;20035;-83
2023/12/08 01:06:48;;;;;;;0.47;0.25;;;;;;;8.44;48.20;98757.50;4975898;28;20089;-82
2023/12/08 01:09:14;;;;;;;0.30;0.20;;;;;;;8.41;48.10;98761.13;4975585;28;20385;-83
2023/12/08 01:11:40;;;;;;;0.50;0.20;;;;;;;8.48;48.37;98770.22;4976011;28;20085;-81
2023/12/08 01:14:05;;;;;;;0.28;0.20;;;;;;;8.41;48.03;98761.13;4975584;28;20034;-81
2023/12/08 01:16:31;;;;;;;0.40;0.30;;;;;;;8.46;48.33;98772.09;4943742;28;20043;-82
2023/12/08 01:18:56;;;;;;;0.85;0.40;;;;;;;8.47;48.29;98771.13;4959945;28;20034;-82
2023/12/08 01:21:22;;;;;;;0.20;0.20;;;;;;;8.46;48.12;98773.84;4976569;28;20027;-82
2023/12/08 01:23:47;;;;;;;0.50;0.20;;;;;;;8.45;48.48;98780.00;4959106;28;20384;-82
2023/12/08 01:26:12;;;;;;;0.63;0.30;;;;;;;8.41;49.04;98781.94;4975663;28;20030;-83
2023/12/08 01:28:38;;;;;;;0.90;0.47;;;;;;;8.43;49.01;98790.50;4959255;28;20058;-84
2023/12/08 01:31:04;;;;;;;0.40;0.40;;;;;;;8.43;49.19;98785.31;4976910;28;20027;-83
2023/12/08 01:33:29;;;;;;;1.58;0.70;;;;;;;8.40;48.98;98784.66;4975244;28;20426;-84
2023/12/08 01:35:55;;;;;;;0.80;0.50;;;;;;;8.40;49.41;98780.28;4959692;28;20089;-84
2023/12/08 01:38:20;;;;;;;0.75;0.45;;;;;;;8.40;49.33;98780.28;4976192;28;20486;-82
2023/12/08 01:40:46;;;;;;;1.05;0.60;;;;;;;8.38;49.04;98776.09;4959225;28;20041;-82
2023/12/08 01:43:12;;;;;;;0.80;0.50;;;;;;;8.40;49.32;98782.88;4979910;28;20431;-82
2023/12/08 01:45:37;;;;;;;1.33;0.60;;;;;;;8.41;49.52;98784.56;4995658;28;20066;-83
2023/12/08 01:48:04;;;;;;;1.02;0.47;;;;;;;8.38;49.32;98769.16;4977920;28;20054;-81
2023/12/08 01:50:29;;;;;;;1.15;0.68;;;;;;;8.41;49.65;98771.53;4976542;28;20027;-81
2023/12/08 01:52:55;;;;;;;2.78;0.65;;;;;;;8.36;49.65;98757.16;4975331;28;20093;-81
2023/12/08 01:55:20;;;;;;;1.40;0.50;;;;;;;8.38;49.69;98766.53;4974970;28;20039;-82
2023/12/08 01:57:46;;;;;;;0.93;0.60;;;;;;;8.40;49.59;98759.47;4975217;28;20031;-82
2023/12/08 02:00:11;;;;;;;1.00;0.60;;;;;;;8.40;49.63;98769.03;4958861;28;20113;-82
2023/12/08 02:02:37;;;;;;;2.00;0.80;;;;;;;8.38;49.93;98763.94;4958885;28;20050;-82
2023/12/08 02:05:03;;;;;;;1.98;0.80;;;;;;;8.35;49.77;98756.34;4974853;28;20027;-82
2023/12/08 02:07:30;;;;;;;2.35;0.70;;;;;;;8.35;49.76;98764.16;4990339;28;20130;-82
2023/12/08 02:09:55;;;;;;;2.67;0.68;;;;;;;8.32;50.05;98766.94;4974215;28;20460;-82
2023/12/08 02:12:21;;;;;;;1.77;0.75;;;;;;;8.32;50.09;98767.78;4974749;28;20054;-81
2023/12/08 02:14:50;;;;;;;1.17;0.70;;;;;;;8.36;50.58;98775.38;4958512;28;20039;-82
2023/12/08 02:17:28;;;;;;;2.30;0.85;;;;;;;8.36;50.30;98777.97;4990158;28;20465;-82
2023/12/08 02:19:54;;;;;;;1.63;0.80;;;;;;;8.36;50.64;98788.38;4974373;28;20054;-81
2023/12/08 02:22:21;;;;;;;1.60;0.65;;;;;;;8.34;50.18;98788.47;4974196;28;20022;-82
2023/12/08 02:24:47;;;;;;;1.17;0.73;;;;;;;8.29;50.06;98777.56;4974694;28;20113;-82
2023/12/08 02:27:12;;;;;;;2.28;0.80;;;;;;;8.31;50.07;98789.50;4958226;28;20046;-82
2023/12/08 02:29:38;;;;;;;1.30;0.70;;;;;;;8.25;50.03;98776.09;4958391;28;20034;-82
2023/12/08 02:32:07;;;;;;;2.03;0.85;;;;;;;8.28;49.57;98786.28;4990241;28;20476;-82
2023/12/08 02:34:33;;;;;;;2.75;0.80;;;;;;;8.29;50.09;98787.97;4958093;28;20394;-82
2023/12/08 02:36:58;;;;;;;2.05;0.82;;;;;;;8.27;49.56;98787.22;4974235;28;20097;-82
2023/12/08 02:39:24;;;;;;;3.47;0.93;;;;;;;8.27;49.97;98793.25;4958291;28;20121;-81
2023/12/08 02:41:50;;;;;;;1.70;0.80;;;;;;;8.27;49.70;98789.81;4973624;28;20053;-82
2023/12/08 02:44:15;;;;;;;3.58;1.00;;;;;;;8.26;49.95;98791.59;4973934;28;20033;-82
2023/12/08 02:46:41;;;;;;;1.83;0.80;;;;;;;8.27;50.22;98793.25;4974072;28;20043;-82
2023/12/08 02:49:07;;;;;;;1.25;0.70;;;;;;;8.20;49.97;98778.16;4957791;28;20475;-82
2023/12/08 02:51:32;;;;;;;1.80;0.70;;;;;;;8.14;49.40;98780.25;4973968;28;20093;-82
2023/12/08 02:53:58;;;;;;;0.98;0.60;;;;;;;8.18;49.51;98785.25;4973185;28;20043;-81
2023/12/08 02:56:23;;;;;;;1.17;0.60;;;;;;;8.14;49.21;98769.84;4973521;28;20113;-83
2023/12/08 02:58:48;;;;;;;1.70;0.80;;;;;;;8.14;49.50;98766.38;4989706;28;20034;-82
2023/12/08 03:01:14;;;;;;;2.38;0.82;;;;;;;8.18;48.81;98780.03;4989848;28;20120;-81
2023/12/08 03:03:40;;;;;;;0.73;0.50;;;;;;;8.19;48.53;98782.53;4973406;28;20034;-82
2023/12/08 03:06:06;;;;;;;1.02;0.52;;;;;;;8.19;48.68;98784.28;4957686;28;20042;-82
2023/12/08 03:08:31;;;;;;;1.00;0.50;;;;;;;8.14;48.42;98785.44;4989495;28;20086;-82
2023/12/08 03:10:57;;;;;;;1.02;0.60;;;;;;;8.17;48.22;98793.97;4957355;28;20051;-82
2023/12/08 03:13:22;;;;;;;1.02;0.60;;;;;;;8.18;48.23;98799.06;4973878;28;20461;-82
2023/12/08 03:15:48;;;;;;;0.70;0.50;;;;;;;8.22;48.55;98802.28;4972951;28;20050;-83
2023/12/08 03:18:13;;;;;;;2.58;0.60;;;;;;;8.24;48.41;98797.81;4956448;28;20038;-82
2023/12/08 03:20:39;;;;;;;1.02;0.60;;;;;;;8.23;48.38;98801.38;4973460;28;20053;-81
2023/12/08 03:23:04;;;;;;;1.63;0.50;;;;;;;8.24;48.41;98798.66;4974050;28;20474;-83
2023/12/08 03:25:30;;;;;;;1.00;0.60;;;;;;;8.21;48.42;98795.44;4972974;28;20038;-83
2023/12/08 03:27:55;;;;;;;0.95;0.50;;;;;;;8.21;48.56;98785.88;4972689;28;20069;-83
2023/12/08 03:30:21;;;;;;;1.20;0.73;;;;;;;8.26;49.08;98793.38;4973292;28;20035;-82
2023/12/08 03:32:46;;;;;;;1.95;0.57;;;;;;;8.21;49.21;98785.03;4957343;28;20491;-83
2023/12/08 03:35:12;;;;;;;1.50;0.73;;;;;;;8.21;48.97;98783.25;4972941;28;20046;-83
2023/12/08 03:37:37;;;;;;;1.58;0.75;;;;;;;8.26;49.18;98798.56;4956951;28;20039;-82
2023/12/08 03:40:03;;;;;;;1.30;0.75;;;;;;;8.25;49.17;98797.72;4972675;28;20034;-85
2023/12/08 03:42:34;;;;;;;1.38;0.80;;;;;;;8.24;49.43;98806.47;4972827;28;20097;-83
2023/12/08 03:45:00;;;;;;;1.75;0.95;;;;;;;8.23;49.08;98791.78;4983810;28;20029;-83
2023/12/08 03:47:25;;;;;;;2.35;1.05;;;;;;;8.25;49.25;98791.69;4987789;28;20495;-83
2023/12/08 03:49:51;;;;;;;1.70;1.05;;;;;;;8.19;49.10;98789.47;4956941;28;20034;-83
2023/12/08 03:52:16;;;;;;;4.95;1.42;;;;;;;8.24;48.86;98797.81;4973160;28;20483;-88
2023/12/08 03:54:42;;;;;;;2.05;0.93;;;;;;;8.23;49.06;98804.78;4989074;28;20035;-83
2023/12/08 03:57:07;;;;;;;2.33;1.20;;;;;;;8.22;49.38;98803.09;4988982;28;20542;-83
2023/12/08 03:59:33;;;;;;;4.10;1.20;;;;;;;8.18;49.14;98798.25;4989227;28;20034;-83
2023/12/08 04:01:58;;;;;;;4.40;1.30;;;;;;;8.18;48.97;98800.84;4988617;28;20030;-83
2023/12/08 04:04:24;;;;;;;2.53;1.38;;;;;;;8.11;49.08;98792.59;4973620;28;20030;-82
2023/12/08 04:06:49;;;;;;;1.95;1.00;;;;;;;8.01;48.87;98794.13;4989052;28;20038;-82
2023/12/08 04:09:14;;;;;;;1.75;0.98;;;;;;;8.04;49.00;98810.34;4972862;28;20410;-82
2023/12/08 04:11:40;;;;;;;1.58;0.85;;;;;;;7.97;48.91;98796.09;4972608;28;20093;-83
2023/12/08 04:14:05;;;;;;;2.45;1.27;;;;;;;8.04;49.25;98799.94;4988733;28;20034;-82
2023/12/08 04:16:31;;;;;;;1.90;0.88;;;;;;;8.04;48.96;98802.56;4956392;28;20469;-84
2023/12/08 04:18:56;;;;;;;1.25;0.75;;;;;;;8.05;49.49;98799.03;4988551;28;20039;-83
2023/12/08 04:21:22;;;;;;;3.78;0.90;;;;;;;8.07;49.31;98804.13;4972212;28;20344;-84
2023/12/08 04:23:48;;;;;;;1.30;0.70;;;;;;;8.08;49.46;98809.22;4988878;28;20022;-83
2023/12/08 04:26:13;;;;;;;8.85;0.80;;;;;;;8.09;49.40;98805.69;4988172;28;20089;-84
2023/12/08 04:28:40;;;;;;;3.78;0.95;;;;;;;8.08;49.41;98801.44;4993697;28;20062;-85
2023/12/08 04:31:05;;;;;;;1.38;0.90;;;;;;;8.12;49.24;98810.69;4990261;28;20023;-82
2023/12/08 04:33:32;;;;;;;1.60;0.82;;;;;;;8.08;49.26;98806.63;4990909;28;20478;-83
2023/12/08 04:35:57;;;;;;;2.35;0.80;;;;;;;8.00;49.30;98795.91;4975098;28;20097;-83
2023/12/08 04:38:22;;;;;;;2.75;0.88;;;;;;;7.94;49.12;98798.91;4959043;28;20047;-84
2023/12/08 04:40:48;;;;;;;1.48;0.88;;;;;;;7.97;49.03;98809.09;4972314;28;20479;-83
2023/12/08 04:43:13;;;;;;;1.55;0.88;;;;;;;7.93;49.02;98802.41;4960240;28;20046;-81
2023/12/08 04:45:39;;;;;;;1.42;0.90;;;;;;;8.00;49.33;98810.66;4957423;28;20039;-78
2023/12/08 04:48:04;;;;;;;1.23;1.02;;;;;;;8.21;63.14;98818.84;4975903;28;20038;-80
2023/12/08 04:50:30;;;;;;;2.40;0.70;;;;;;;8.31;61.92;98819.91;4991374;28;20054;-77
2023/12/08 04:52:55;;;;;;;1.40;0.73;;;;;;;8.37;58.89;98829.06;4975538;28;20042;-76
2023/12/08 04:55:21;;;;;;;2.42;0.90;;;;;;;8.35;57.55;98826.56;4991675;28;20038;-76
2023/12/08 04:57:46;;;;;;;1.42;0.95;;;;;;;8.32;57.19;98831.97;4975454;28;20121;-76
2023/12/08 05:00:12;;;;;;;1.10;0.70;;;;;;;8.32;56.15;98834.56;4975618;28;20042;-77
2023/12/08 05:02:37;;;;;;;1.33;0.80;;;;;;;8.30;55.42;98837.28;4974739;28;20039;-78
2023/12/08 05:05:03;;;;;;;2.25;0.98;;;;;;;8.26;55.06;98833.19;4991207;28;20046;-76
2023/12/08 05:07:29;;;;;;;4.05;0.80;;;;;;;8.29;54.80;98842.56;4974411;28;20509;-77
2023/12/08 05:09:54;;;;;;;3.72;1.48;;;;;;;8.48;66.37;98843.06;4993503;28;20471;-79
2023/12/08 05:12:20;;;;;;;2.15;1.00;;;;;;;8.56;64.04;98839.13;4977430;28;20514;-79
2023/12/08 05:14:45;;;;;;;3.13;1.10;;;;;;;8.56;62.35;98839.97;4990967;28;20552;-77
2023/12/08 05:17:11;;;;;;;2.10;1.20;;;;;;;8.48;61.26;98835.25;4974801;28;20046;-74
2023/12/08 05:19:36;;;;;;;4.95;1.20;;;;;;;8.45;59.90;98840.66;4974895;28;20027;-75
2023/12/08 05:22:03;;;;;;;2.33;1.13;;;;;;;8.36;59.63;98837.81;4991129;28;20483;-77
2023/12/08 05:24:28;;;;;;;3.58;1.30;;;;;;;8.36;57.97;98849.03;4991652;28;20027;-88
2023/12/08 05:26:54;;;;;;;3.08;1.23;;;;;;;8.34;56.54;98843.09;4975091;28;20042;-83
2023/12/08 05:29:20;;;;;;;2.63;1.05;;;;;;;8.30;56.38;98841.63;4977677;28;20059;-84
2023/12/08 05:31:47;;;;;;;1.95;0.98;;;;;;;8.52;66.02;98848.88;4979843;28;20031;-83
2023/12/08 05:34:12;;;;;;;6.97;1.10;;;;;;;8.61;64.53;98847.47;4994705;28;20034;-90
2023/12/08 05:36:38;;;;;;;3.50;1.10;;;;;;;8.63;62.67;98843.81;4979917;28;20403;-82
2023/12/08 05:39:03;;;;;;;3.35;1.30;;;;;;;8.62;61.31;98852.56;4960521;28;20047;-87
2023/12/08 05:41:29;;;;;;;4.93;1.27;;;;;;;8.60;60.63;98846.63;4994613;28;20046;-89
2023/12/08 05:43:55;;;;;;;4.80;1.23;;;;;;;8.58;60.01;98856.28;4992800;28;20486;-88
2023/12/08 05:46:20;;;;;;;2.05;1.15;;;;;;;8.51;59.72;98855.88;4978967;28;20035;-90
2023/12/08 05:48:47;;;;;;;7.60;1.30;;;;;;;8.53;58.99;98858.38;4964154;28;20062;-91
2023/12/08 05:51:13;;;;;;;2.67;1.30;;;;;;;8.54;58.22;98856.59;4997370;28;20027;-83
2023/12/08 05:53:38;;;;;;;5.10;1.10;;;;;;;8.53;57.60;98857.53;4963014;28;20074;-88
2023/12/08 05:56:04;;;;;;;3.45;1.30;;;;;;;8.48;57.37;98850.88;4966578;28;20078;-88
2023/12/08 05:58:29;;;;;;;3.13;1.48;;;;;;;8.54;56.59;98859.19;4966284;28;20077;-91
2023/12/08 06:00:56;;;;;;;3.30;1.50;;;;;;;8.54;56.56;98852.25;4982600;28;20030;-89
2023/12/08 06:03:21;;;;;;;3.92;2.45;;;;;;;8.54;56.01;98854.00;4961856;28;20463;-89
2023/12/08 06:05:47;;;;;;;2.92;1.80;;;;;;;8.57;55.61;98859.00;4963518;28;20102;-90
2023/12/08 06:08:13;;;;;;;8.90;1.90;;;;;;;8.59;55.52;98863.16;4985869;28;20405;-88
2023/12/08 06:10:38;;;;;;;8.80;2.00;;;;;;;8.58;55.33;98855.47;4966866;28;20031;-90
2023/12/08 06:13:04;;;;;;;3.30;1.98;;;;;;;8.59;54.98;98851.94;4981146;28;20485;-88
2023/12/08 06:15:29;;;;;;;3.47;1.92;;;;;;;8.61;54.66;98860.47;4984243;28;20038;-89
2023/12/08 06:17:55;;;;;;;2.83;1.80;;;;;;;8.60;54.56;98857.03;4970845;28;20038;-86
2023/12/08 06:20:21;;;;;;;3.53;1.60;;;;;;;8.60;54.15;98853.59;4982229;28;20035;-87
2023/12/08 06:22:46;;;;;;;2.50;1.70;;;;;;;8.65;54.00;98864.50;4967569;28;20050;-91
2023/12/08 06:25:12;;;;;;;2.88;1.80;;;;;;;8.66;53.51;98855.78;4972904;28;20043;-90
2023/12/08 06:27:37;;;;;;;2.95;1.65;;;;;;;8.66;53.46;98854.00;4984700;28;20054;-90
2023/12/08 06:30:04;;;;;;;3.28;1.70;;;;;;;8.65;53.03;98847.16;4983740;28;20093;-90
2023/12/08 06:32:29;;;;;;;2.25;1.73;;;;;;;8.71;52.99;98855.47;4986767;28;20050;-91
2023/12/08 06:34:55;;;;;;;2.33;1.40;;;;;;;8.72;52.54;98855.38;4970941;28;20046;-93
2023/12/08 06:37:20;;;;;;;1.85;1.33;;;;;;;8.74;52.23;98860.47;4990942;28;20039;-93
2023/12/08 06:39:46;;;;;;;2.47;1.23;;;;;;;8.72;52.17;98854.56;4989330;28;20022;-90
2023/12/08 06:42:11;;;;;;;2.40;1.50;;;;;;;8.79;51.82;98869.66;4989674;28;20034;-91
2023/12/08 06:44:38;;;;;;;3.00;1.75;;;;;;;8.81;51.75;98874.78;4987327;28;20038;-90
2023/12/08 06:47:03;;;;;;;2.47;1.40;;;;;;;8.81;51.05;98866.97;4985697;28;20098;-91
2023/12/08 06:49:29;;;;;;;2.03;1.33;;;;;;;8.84;51.01;98878.00;4973856;28;20042;-92
2023/12/08 06:51:54;;;;;;;2.25;1.30;;;;;;;8.79;51.06;98863.59;4974113;28;20034;-91
2023/12/08 06:54:20;;;;;;;2.95;1.67;;;;;;;8.87;50.59;98883.00;4989484;28;20046;-91
2023/12/08 06:56:45;;;;;;;2.78;1.45;;;;;;;8.91;50.52;98885.41;4975207;28;20031;-91
2023/12/08 06:59:11;;;;;;;2.90;1.70;;;;;;;8.92;50.41;98890.50;4977240;28;20045;-90
2023/12/08 07:01:38;;;;;;;3.63;1.55;;;;;;;8.94;50.28;98890.41;4975211;28;20030;-90
2023/12/08 07:04:05;;;;;;;2.83;1.33;;;;;;;8.96;50.08;98894.53;4963315;28;20043;-92
2023/12/08 07:06:30;;;;;;;2.17;1.45;;;;;;;8.98;50.15;98897.91;4976823;28;20035;-92
2023/12/08 07:08:56;;;;;;;2.60;1.30;;;;;;;8.99;49.88;98896.13;4992130;28;20113;-91
2023/12/08 07:11:23;;;;;;;2.22;1.55;;;;;;;8.96;49.97;98897.16;4991501;28;20031;-90
2023/12/08 07:13:49;;;;;;;2.25;1.50;;;;;;;8.97;49.67;98895.41;4988402;28;20037;-92
2023/12/08 07:16:14;;;;;;;2.70;1.42;;;;;;;8.99;49.94;98896.13;4973107;28;20038;-92
2023/12/08 07:18:40;;;;;;;1.70;1.20;;;;;;;9.02;49.56;98907.16;4986407;28;20062;-90
2023/12/08 07:21:06;;;;;;;2.40;1.60;;;;;;;9.05;49.79;98909.56;4968557;28;20039;-91
2023/12/08 07:23:33;;;;;;;2.10;1.42;;;;;;;9.07;49.70;98893.00;4954657;28;20094;-92
2023/12/08 07:26:00;;;;;;;2.78;1.90;;;;;;;9.11;49.54;98910.06;4987286;28;20047;-90
2023/12/08 07:28:25;;;;;;;5.07;1.48;;;;;;;9.10;49.67;98904.03;4967679;28;20419;-89
2023/12/08 07:30:53;;;;;;;1.90;1.33;;;;;;;9.11;49.35;98913.53;4969266;28;20107;-91
2023/12/08 07:33:18;;;;;;;2.65;1.38;;;;;;;9.02;49.26;98894.13;4987337;28;20035;-89
2023/12/08 07:35:46;;;;;;;1.88;1.27;;;;;;;9.10;49.31;98901.44;4988379;28;20069;-92
2023/12/08 07:38:12;;;;;;;3.03;1.67;;;;;;;9.12;49.27;98907.38;4989183;28;20037;-90
2023/12/08 07:40:37;;;;;;;2.58;1.70;;;;;;;9.14;49.22;98910.72;4987667;28;20034;-91
2023/12/08 07:43:04;;;;;;;2.78;1.73;;;;;;;9.14;49.07;98910.72;5045460;23;20014;-91
2023/12/08 07:45:30;;;;;;;2.15;1.50;;;;;;;9.16;48.82;98905.41;4962099;28;20035;-91
2023/12/08 07:47:57;;;;;;;2.72;1.52;;;;;;;9.19;48.79;98913.84;4993471;28;20023;-91
2023/12/08 07:50:22;;;;;;;2.80;1.90;;;;;;;9.19;48.72;98913.84;4961465;28;20023;-92
2023/12/08 07:52:48;;;;;;;2.90;1.75;;;;;;;9.14;48.65;98899.44;4995562;23;20089;-93
2023/12/08 07:55:14;;;;;;;2.90;1.98;;;;;;;9.10;48.55;98880.59;5130933;23;20061;-92
2023/12/08 07:57:43;;;;;;;3.15;1.92;;;;;;;9.18;48.56;98906.13;5032683;23;20039;-89
2023/12/08 08:00:10;;;;;;;2.80;1.83;;;;;;;9.24;48.24;98910.94;5143489;23;20090;-89
2023/12/08 08:02:37;;;;;;;2.88;2.00;;;;;;;9.20;48.45;98904.25;4965773;28;20095;-91
2023/12/08 08:05:03;;;;;;;2.50;2.00;;;;;;;9.26;48.50;98914.25;4968551;28;20050;-91
2023/12/08 08:07:28;;;;;;;3.10;1.92;;;;;;;9.22;48.60;98910.22;5000554;23;20019;-91
2023/12/08 08:09:54;;;;;;;2.97;2.10;;;;;;;9.19;48.31;98898.22;4983283;28;20063;-91
2023/12/08 08:12:20;;;;;;;2.85;1.90;;;;;;;9.22;48.56;98905.00;4978406;28;20039;-88
2023/12/08 08:14:46;;;;;;;3.30;2.10;;;;;;;9.20;48.16;98899.03;4993729;28;20058;-89
2023/12/08 08:17:11;;;;;;;3.42;2.33;;;;;;;9.20;48.45;98896.44;4980149;28;20035;-92
2023/12/08 08:19:37;;;;;;;2.63;1.92;;;;;;;9.26;48.40;98898.63;4980120;28;20030;-89
2023/12/08 08:22:03;;;;;;;3.25;2.03;;;;;;;9.35;48.33;98899.78;4961933;28;20022;-90
2023/12/08 08:24:29;;;;;;;2.55;1.90;;;;;;;9.33;48.29;98883.41;4996798;28;20031;-91
2023/12/08 08:26:54;;;;;;;3.55;2.10;;;;;;;9.36;48.07;98891.84;4994044;28;20058;-90
2023/12/08 08:29:20;;;;;;;2.97;1.88;;;;;;;9.41;47.84;98900.19;5001339;28;20153;-91
2023/12/08 08:31:45;;;;;;;2.70;1.65;;;;;;;9.46;48.06;98904.25;4971782;28;20019;-90
2023/12/08 08:34:11;;;;;;;3.45;1.80;;;;;;;9.48;48.38;98908.41;5012878;23;20065;-91
2023/12/08 08:36:36;;;;;;;2.70;1.80;;;;;;;9.47;47.77;98898.94;5076969;23;20258;-90
2023/12/08 08:39:05;;;;;;;2.65;1.70;;;;;;;9.48;48.12;98895.38;4985954;28;20040;-92
2023/12/08 08:41:30;;;;;;;2.65;1.75;;;;;;;9.48;48.00;98894.56;5001932;28;20046;-92
2023/12/08 08:43:56;;;;;;;3.28;1.75;;;;;;;9.52;48.02;98903.81;4962016;28;20043;-91
2023/12/08 08:46:22;;;;;;;2.65;1.48;;;;;;;9.49;47.78;98904.00;4994393;28;20069;-91
2023/12/08 08:48:47;;;;;;;2.85;1.50;;;;;;;9.50;47.93;98895.28;4994308;28;20071;-89
2023/12/08 08:51:16;;;;;;;2.38;1.20;;;;;;;9.49;47.92;98889.22;4979882;28;20039;-89
2023/12/08 08:53:42;;;;;;;5.95;1.45;;;;;;;9.50;47.93;98896.09;4975963;29;20031;-89
2023/12/08 08:56:07;;;;;;;1.88;1.45;;;;;;;9.49;47.97;98883.16;4976648;28;20035;-91
2023/12/08 08:58:34;;;;;;;3.15;1.60;;;;;;;9.46;47.97;98892.06;4976810;28;20092;-90
2023/12/08 09:00:59;;;;;;;2.67;1.42;;;;;;;9.46;48.10;98889.44;4990699;28;20043;-90
2023/12/08 09:03:25;;;;;;;2.20;1.33;;;;;;;9.46;47.76;98888.63;4991447;28;20039;-92
2023/12/08 09:05:51;;;;;;;2.25;1.27;;;;;;;9.47;47.87;98890.28;4974584;29;20042;-91
2023/12/08 09:08:17;;;;;;;1.90;1.40;;;;;;;9.45;47.93;98892.97;4979366;28;20066;-92
2023/12/08 09:10:45;;;;;;;1.98;1.58;;;;;;;9.47;48.19;98878.09;4992779;28;20031;-91
2023/12/08 09:13:11;;;;;;;;;;;;;;;9.49;48.10;98878.81;4996325;28;20031;-91
2023/12/08 09:15:37;;;;;;;5.03;1.70;;;;;;;9.47;48.37;98888.50;4996057;28;19918;-91
2023/12/08 09:18:03;;;;;;;2.50;1.60;;;;;;;9.48;48.12;98879.75;4992843;28;20507;-90
2023/12/08 09:20:28;;;;;;;2.20;1.30;;;;;;;9.49;47.86;98877.97;4975773;28;20053;-92
2023/12/08 09:22:55;;;;;;;3.53;1.30;;;;;;;9.50;47.86;98872.63;4993473;28;20015;-91
2023/12/08 09:25:21;;;;;;;2.90;1.52;;;;;;;9.50;47.88;98870.03;4989556;28;20039;-90
2023/12/08 09:27:47;;;;;;;5.82;2.20;;;;;;;9.51;47.80;98873.50;4989324;28;20039;-89
2023/12/08 09:30:13;;;;;;;8.20;3.88;;;;;;;9.48;47.99;98861.50;4992611;28;20036;-91
2023/12/08 09:32:39;;;;;;;11.68;4.60;;;;;;;9.51;47.66;98865.69;4971674;29;20038;-89
2023/12/08 09:35:07;;;;;;;13.35;4.30;;;;;;;9.53;47.88;98863.78;4969091;29;20035;-88
2023/12/08 09:37:33;;;;;;;11.77;4.22;;;;;;;9.53;47.79;98859.41;4981857;28;20058;-91
2023/12/08 09:39:58;;;;;;;11.63;3.83;;;;;;;9.54;47.64;98858.47;4985595;28;20031;-90
2023/12/08 09:42:34;;;;;;;7.60;3.40;;;;;;;9.55;47.27;98864.50;4985080;28;20031;-91
2023/12/08 09:45:00;;;;;;;6.95;2.85;;;;;;;9.52;47.12;98860.34;4984504;28;20115;-91
2023/12/08 09:47:27;;;;;;;6.03;3.05;;;;;;;9.51;46.91;98856.06;4986748;28;20066;-90
2023/12/08 09:49:53;;;;;;;6.47;2.97;;;;;;;9.56;46.61;98860.97;4987556;28;20169;-90
2023/12/08 09:54:53;;;;;;;6.80;2.72;;;;;;;9.56;46.42;98840.13;4999238;23;20089;-92
2023/12/08 09:57:19;;;;;;;7.78;3.17;;;;;;;9.66;46.21;98845.50;5120841;23;20073;-91
2023/12/08 09:59:47;;;;;;;9.65;3.25;;;;;;;9.58;46.01;98848.66;5017714;28;20044;-93
2023/12/08 10:02:13;;;;;;;7.25;3.50;;;;;;;9.59;46.32;98840.72;5009319;28;20033;-90
2023/12/08 10:04:39;;;;;;;7.15;3.90;;;;;;;9.56;46.24;98832.31;5533324;23;20034;-94
2023/12/08 10:07:05;;;;;;;7.97;3.70;;;;;;;9.58;46.34;98833.88;5302584;23;20125;-93
2023/12/08 10:09:31;;;;;;;6.60;3.60;;;;;;;9.51;47.00;98824.81;5172171;23;20017;-85
2023/12/08 10:15:02;;;;;;;9.63;3.72;;;;;;;9.36;48.03;98836.28;5016767;28;20073;-91
2023/12/08 10:17:28;;;;;;;6.18;3.75;;;;;;;9.21;48.49;98815.59;5151105;23;20050;-91
2023/12/08 10:20:11;;;;;;;5.20;3.28;;;;;;;9.34;48.66;98830.38;5010915;28;20113;-89
2023/12/08 10:22:59;;;;;;;5.13;3.30;;;;;;;9.39;48.95;98838.69;5008792;28;20027;-91
2023/12/08 10:25:25;;;;;;;;;;;;;;;9.45;49.01;98834.84;4997662;28;20033;-91
2023/12/08 10:27:52;;;;;;;6.32;3.20;;;;;;;9.41;49.09;98832.44;4998021;28;19910;-91
2023/12/08 10:30:21;;;;;;;6.40;3.63;;;;;;;9.43;49.41;98821.09;4980622;28;20029;-90
2023/12/08 10:32:47;;;;;;;5.40;3.53;;;;;;;9.48;49.24;98827.63;5010349;28;20057;-92
2023/12/08 10:35:13;;;;;;;5.63;3.22;;;;;;;9.40;49.69;98822.94;5432090;23;20029;-89
2023/12/08 10:37:42;;;;;;;6.07;3.30;;;;;;;9.42;49.45;98817.63;5019628;22;20427;-91
2023/12/08 10:40:15;;;;;;;4.70;3.13;;;;;;;9.44;49.60;98823.59;4998519;28;20042;-92
2023/12/08 10:42:42;;;;;;;6.72;3.10;;;;;;;9.49;49.62;98818.03;4982032;28;20096;-89
2023/12/08 10:45:14;;;;;;;5.05;3.03;;;;;;;9.51;49.56;98823.97;5009411;23;20046;-90
2023/12/08 10:47:43;;;;;;;6.55;3.40;;;;;;;9.64;49.55;98834.38;5048979;23;20055;-90
2023/12/08 10:50:14;;;;;;;4.57;2.85;;;;;;;9.65;49.94;98825.63;5049387;23;20056;-89
2023/12/08 10:52:40;;;;;;;4.90;2.88;;;;;;;9.64;49.50;98818.72;5022818;28;20046;-90
2023/12/08 10:55:09;;;;;;;6.90;2.80;;;;;;;9.59;49.41;98806.84;5005982;28;20516;-90
2023/12/08 10:57:35;;;;;;;4.88;2.88;;;;;;;9.66;49.56;98804.66;5038761;28;20090;-89
2023/12/08 11:00:19;;;;;;;4.38;3.03;;;;;;;9.67;49.61;98808.09;5023330;28;20033;-88
2023/12/08 11:02:48;;;;;;;4.18;2.65;;;;;;;9.57;49.34;98789.66;5049992;28;20029;-90
2023/12/08 11:07:49;;;;;;;3.40;2.25;;;;;;;9.57;49.09;98784.47;5313858;22;19912;-93
2023/12/08 11:10:15;;;;;;;4.35;2.22;;;;;;;9.64;48.72;98783.06;5003435;28;20037;-92
2023/12/08 11:12:56;;;;;;;4.40;2.22;;;;;;;9.57;48.60;98772.25;5017560;28;20033;-91
2023/12/08 11:15:21;;;;;;;3.67;2.10;;;;;;;9.65;48.49;98779.53;5086660;23;20069;-92
2023/12/08 11:20:32;;;;;;;2.95;1.77;;;;;;;9.74;48.46;98789.28;5986058;22;20053;31
2023/12/08 11:23:00;;;;;;;2.58;1.60;;;;;;;9.71;48.52;98781.69;5104546;23;20065;-93
2023/12/08 11:25:40;;;;;;;3.03;1.60;;;;;;;9.69;48.51;98778.34;5111840;23;20053;-92
2023/12/08 11:28:27;;;;;;;2.65;1.45;;;;;;;9.72;48.42;98780.72;5246287;22;20070;-93
2023/12/08 11:31:09;;;;;;;2.17;1.50;;;;;;;9.49;48.27;98745.91;5151061;22;21152;-89
2023/12/08 11:33:50;;;;;;;4.88;1.30;;;;;;;9.59;48.20;98757.31;5275978;22;20087;-92
2023/12/08 11:36:18;;;;;;;5.18;1.40;;;;;;;9.56;48.21;98749.72;5026384;28;20091;-93
2023/12/08 11:38:44;;;;;;;2.03;1.25;;;;;;;9.61;47.96;98749.41;5042711;28;20024;-92
2023/12/08 11:41:14;;;;;;;2.00;1.23;;;;;;;9.66;47.95;98764.72;5025139;28;20086;-93
2023/12/08 11:43:43;;;;;;;2.08;1.25;;;;;;;9.56;47.93;98743.69;5122443;22;20077;-92
2023/12/08 11:46:09;;;;;;;2.90;1.45;;;;;;;9.52;47.72;98737.88;4983081;28;20030;-93
2023/12/08 11:48:41;;;;;;;2.10;1.30;;;;;;;9.60;47.57;98756.41;4982477;28;20069;-93